Los Angeles, California
Current Conditions -  °F | °C
As of 8:47 AM on Friday 28 Nov 2014 (Local Time) from KCQT Reporting Station
Clear Clear  
Wind Chill: 64°   Ceiling: Unl
Heat Index: 64°   Visibility: 10mi
Dew Point: 36°   Wind: 0mph
Humidity: 35%   Direction: NA
Pressure: 30"   Gusts: NA
Location:  34.05°N, 118.24°W
Report Text: KCQT 281647Z AUTO 00000KT 10SM CLR 18/02 A3000 RMK AO2 SLP156 T01780022
Loading
Personal Weather Stations






























Interactive Weather Map New forecast layout! Learn more

10-Day Weather Forecast

Advertisements
Track Severe Weather on mobile